CDT,Max TemperatureF,Mean TemperatureF,Min TemperatureF,Max Dew PointF,MeanDew PointF,Min DewpointF,Max Humidity, Mean Humidity, Min Humidity, Max Sea Level PressureIn, Mean Sea Level PressureIn, Min Sea Level PressureIn, Max VisibilityMiles, Mean VisibilityMiles, Min VisibilityMiles, Max Wind SpeedMPH, Mean Wind SpeedMPH, Max Gust SpeedMPH,PrecipitationIn, CloudCover, Events, WindDirDegrees
2013-9-1,84,74,66,71,68,66,99,89,61,29.98,29.91,29.86,10,9,2,8,1,,0.54,3,Rain-Thunderstorm,212
2013-9-2,82,74,66,72,69,66,100,91,69,29.97,29.93,29.88,10,6,0,8,1,17,0.89,6,Fog-Rain-Thunderstorm,183
2013-9-3,81,71,61,69,65,61,100,83,53,30.09,29.99,29.92,10,8,1,9,2,,1.13,4,Rain-Thunderstorm,351
2013-9-4,81,70,59,64,61,57,100,82,46,30.19,30.13,30.09,10,7,0,8,1,,0.00,3,Fog,22
2013-9-5,80,68,57,66,61,58,100,87,57,30.24,30.20,30.16,10,7,0,6,0,,0.00,3,Fog,358
2013-9-6,84,72,60,67,63,60,100,83,45,30.25,30.18,30.12,10,7,0,8,0,,0.00,4,Fog,354
2013-9-7,84,72,60,69,64,61,100,83,48,30.17,30.11,30.02,10,7,0,6,1,,0.00,4,Fog,269
2013-9-8,85,74,64,69,65,61,100,84,45,30.08,30.04,30.00,10,8,0,5,0,,0.00,4,Fog,341
2013-9-9,86,74,63,72,66,63,100,83,52,30.17,30.11,30.07,10,7,0,7,1,,0.00,2,Fog,198
2013-9-10,87,76,64,72,68,65,100,81,50,30.26,30.21,30.16,10,8,0,8,1,,0.00,1,Fog,183
2013-9-11,84,74,66,73,69,66,99,86,61,30.27,30.21,30.14,10,8,1,6,0,,0.18,3,Rain-Thunderstorm,271
2013-9-12,87,76,67,72,68,67,100,86,51,30.13,30.04,29.93,10,7,0,18,1,26,0.47,5,Fog-Rain-Thunderstorm,278
2013-9-13,73,64,54,66,56,48,100,74,45,30.06,29.98,29.94,10,8,0,13,3,20,0.00,3,Fog,342
2013-9-14,72,59,46,54,50,46,100,79,43,30.14,30.10,30.05,10,9,0,6,0,,0.00,2,Fog,300
2013-9-15,79,64,50,64,56,50,100,83,49,30.22,30.17,30.13,10,7,0,9,1,9,0.00,3,Fog,212
2013-9-16,70,64,57,64,60,57,100,93,74,30.25,30.20,30.16,10,6,0,5,0,,0.01,7,Fog-Rain,12
2013-9-17,78,67,56,66,60,56,100,83,57,30.27,30.22,30.17,10,7,0,5,1,,0.00,6,Fog,219
2013-9-18,66,63,60,62,59,55,94,85,73,30.26,30.22,30.18,10,10,2,6,2,,0.05,8,Rain,193
2013-9-19,79,70,60,68,64,61,100,85,63,30.20,30.15,30.09,10,9,5,5,1,,0.00,4,,203
2013-9-20,82,72,61,68,64,61,100,85,51,30.11,30.03,29.92,10,6,0,8,1,,0.00,4,Fog,184
2013-9-21,69,61,53,67,62,54,100,93,77,29.91,29.83,29.77,10,7,1,8,1,16,1.15,6,Rain,168
2013-9-22,71,62,51,56,54,52,100,83,51,29.99,29.94,29.87,10,8,0,8,1,,0.00,4,Fog,359
2013-9-23,76,62,48,63,55,49,100,87,53,30.08,30.03,29.99,10,7,0,4,0,,0.00,4,Fog,240
2013-9-24,78,66,56,64,59,56,100,82,48,30.10,30.01,29.92,10,8,0,5,0,,0.00,6,Fog,147
2013-9-25,72,66,61,65,63,61,100,93,72,29.93,29.90,29.87,10,9,0,7,0,,0.16,7,Fog-Rain,71
2013-9-26,75,66,56,61,59,55,100,82,49,30.10,30.01,29.93,10,10,0,9,1,,0.00,5,Fog,360
2013-9-27,79,66,55,60,57,52,100,83,40,30.20,30.14,30.10,10,6,0,6,0,,0.00,4,Fog,315
2013-9-28,77,64,52,63,57,52,100,84,50,30.26,30.19,30.13,10,7,0,6,1,,0.00,4,Fog,226
2013-9-29,71,62,53,61,57,53,100,86,62,30.17,30.12,30.04,10,9,0,6,0,,0.00,4,Fog,98
2013-9-30,76,65,54,61,57,52,100,84,44,30.12,30.08,30.02,10,7,0,10,1,,0.00,5,Fog,198